sensor_id;sensor_type;location;lat;lon;timestamp;temperature;humidity
13616;DHT22;6879;51.368;6.782;2023-12-07T00:02:18;-1.30;99.90
13616;DHT22;6879;51.368;6.782;2023-12-07T00:06:21;-1.40;99.90
13616;DHT22;6879;51.368;6.782;2023-12-07T00:10:19;-1.50;99.90
13616;DHT22;6879;51.368;6.782;2023-12-07T00:13:50;-1.40;99.90
13616;DHT22;6879;51.368;6.782;2023-12-07T00:16:21;-1.30;99.90
13616;DHT22;6879;51.368;6.782;2023-12-07T00:18:55;-1.20;99.90
13616;DHT22;6879;51.368;6.782;2023-12-07T00:21:27;-1.10;99.90
13616;DHT22;6879;51.368;6.782;2023-12-07T00:23:59;-1.10;99.90
13616;DHT22;6879;51.368;6.782;2023-12-07T00:26:30;-1.10;99.90
13616;DHT22;6879;51.368;6.782;2023-12-07T00:29:03;-1.00;99.90
13616;DHT22;6879;51.368;6.782;2023-12-07T00:31:35;-0.90;99.90
13616;DHT22;6879;51.368;6.782;2023-12-07T00:34:09;-1.00;99.90
13616;DHT22;6879;51.368;6.782;2023-12-07T00:36:41;-0.90;99.90
13616;DHT22;6879;51.368;6.782;2023-12-07T00:39:13;-0.90;99.90
13616;DHT22;6879;51.368;6.782;2023-12-07T00:41:46;-0.90;99.90
13616;DHT22;6879;51.368;6.782;2023-12-07T00:44:17;-0.80;99.90
13616;DHT22;6879;51.368;6.782;2023-12-07T00:46:46;-0.80;99.90
13616;DHT22;6879;51.368;6.782;2023-12-07T00:49:16;-0.80;99.90
13616;DHT22;6879;51.368;6.782;2023-12-07T00:51:45;-0.70;99.90
13616;DHT22;6879;51.368;6.782;2023-12-07T00:54:14;-0.70;99.90
13616;DHT22;6879;51.368;6.782;2023-12-07T00:56:42;-0.70;99.90
13616;DHT22;6879;51.368;6.782;2023-12-07T00:59:11;-0.70;99.90
13616;DHT22;6879;51.368;6.782;2023-12-07T01:01:40;-0.60;99.90
13616;DHT22;6879;51.368;6.782;2023-12-07T01:04:09;-0.60;99.90
13616;DHT22;6879;51.368;6.782;2023-12-07T01:06:39;-0.50;99.90
13616;DHT22;6879;51.368;6.782;2023-12-07T01:09:08;-0.50;99.90
13616;DHT22;6879;51.368;6.782;2023-12-07T01:11:40;-0.50;99.90
13616;DHT22;6879;51.368;6.782;2023-12-07T01:14:09;-0.70;99.90
13616;DHT22;6879;51.368;6.782;2023-12-07T01:16:38;-0.80;99.90
13616;DHT22;6879;51.368;6.782;2023-12-07T01:19:07;-1.00;99.90
13616;DHT22;6879;51.368;6.782;2023-12-07T01:21:35;-1.10;99.90
13616;DHT22;6879;51.368;6.782;2023-12-07T01:24:06;-1.10;99.90
13616;DHT22;6879;51.368;6.782;2023-12-07T01:26:42;-0.90;99.90
13616;DHT22;6879;51.368;6.782;2023-12-07T01:29:11;-1.00;99.90
13616;DHT22;6879;51.368;6.782;2023-12-07T01:31:41;-0.90;99.90
13616;DHT22;6879;51.368;6.782;2023-12-07T01:34:09;-1.00;99.90
13616;DHT22;6879;51.368;6.782;2023-12-07T01:36:38;-1.10;99.90
13616;DHT22;6879;51.368;6.782;2023-12-07T01:39:08;-1.20;99.90
13616;DHT22;6879;51.368;6.782;2023-12-07T01:41:39;-1.30;99.90
13616;DHT22;6879;51.368;6.782;2023-12-07T01:44:08;-1.40;99.90
13616;DHT22;6879;51.368;6.782;2023-12-07T01:46:37;-1.40;99.90
13616;DHT22;6879;51.368;6.782;2023-12-07T01:49:06;-1.60;99.90
13616;DHT22;6879;51.368;6.782;2023-12-07T01:51:34;-1.50;99.90
13616;DHT22;6879;51.368;6.782;2023-12-07T01:54:03;-1.40;99.90
13616;DHT22;6879;51.368;6.782;2023-12-07T01:56:33;-1.40;99.90
13616;DHT22;6879;51.368;6.782;2023-12-07T01:59:02;-1.60;99.90
13616;DHT22;6879;51.368;6.782;2023-12-07T02:01:31;-1.60;99.90
13616;DHT22;6879;51.368;6.782;2023-12-07T02:04:00;-1.60;99.90
13616;DHT22;6879;51.368;6.782;2023-12-07T02:06:29;-1.30;99.90
13616;DHT22;6879;51.368;6.782;2023-12-07T02:08:59;-1.00;99.90
13616;DHT22;6879;51.368;6.782;2023-12-07T02:11:29;-1.00;99.90
13616;DHT22;6879;51.368;6.782;2023-12-07T02:13:59;-1.10;99.90
13616;DHT22;6879;51.368;6.782;2023-12-07T02:16:31;-1.10;99.90
13616;DHT22;6879;51.368;6.782;2023-12-07T02:19:18;-1.00;99.90
13616;DHT22;6879;51.368;6.782;2023-12-07T02:21:58;-1.00;99.90
13616;DHT22;6879;51.368;6.782;2023-12-07T02:24:28;-0.90;99.90
13616;DHT22;6879;51.368;6.782;2023-12-07T02:27:03;-0.80;99.90
13616;DHT22;6879;51.368;6.782;2023-12-07T02:29:31;-0.70;99.90
13616;DHT22;6879;51.368;6.782;2023-12-07T02:32:00;-0.60;99.90
13616;DHT22;6879;51.368;6.782;2023-12-07T02:34:29;-0.50;99.90
13616;DHT22;6879;51.368;6.782;2023-12-07T02:36:59;-0.20;99.90
13616;DHT22;6879;51.368;6.782;2023-12-07T02:39:29;-0.10;99.90
13616;DHT22;6879;51.368;6.782;2023-12-07T02:41:59;-0.10;99.90
13616;DHT22;6879;51.368;6.782;2023-12-07T02:44:30;-0.10;99.90
13616;DHT22;6879;51.368;6.782;2023-12-07T02:46:58;0.10;99.90
13616;DHT22;6879;51.368;6.782;2023-12-07T02:49:27;0.30;99.90
13616;DHT22;6879;51.368;6.782;2023-12-07T02:51:56;0.30;99.90
13616;DHT22;6879;51.368;6.782;2023-12-07T02:54:25;0.40;99.90
13616;DHT22;6879;51.368;6.782;2023-12-07T02:56:53;0.50;99.90
13616;DHT22;6879;51.368;6.782;2023-12-07T02:59:22;0.60;99.90
13616;DHT22;6879;51.368;6.782;2023-12-07T03:01:52;0.70;99.90
13616;DHT22;6879;51.368;6.782;2023-12-07T03:04:21;0.70;99.90
13616;DHT22;6879;51.368;6.782;2023-12-07T03:06:50;0.80;99.90
13616;DHT22;6879;51.368;6.782;2023-12-07T03:09:18;0.80;99.90
13616;DHT22;6879;51.368;6.782;2023-12-07T03:11:47;0.80;99.90
13616;DHT22;6879;51.368;6.782;2023-12-07T03:14:16;0.80;99.90
13616;DHT22;6879;51.368;6.782;2023-12-07T03:16:46;0.90;99.90
13616;DHT22;6879;51.368;6.782;2023-12-07T03:19:16;1.00;99.90
13616;DHT22;6879;51.368;6.782;2023-12-07T03:21:45;1.00;99.90
13616;DHT22;6879;51.368;6.782;2023-12-07T03:24:14;1.00;99.90
13616;DHT22;6879;51.368;6.782;2023-12-07T03:26:42;1.10;99.90
13616;DHT22;6879;51.368;6.782;2023-12-07T03:29:11;1.20;99.90
13616;DHT22;6879;51.368;6.782;2023-12-07T03:31:40;1.30;99.90
13616;DHT22;6879;51.368;6.782;2023-12-07T03:34:08;1.30;99.90
13616;DHT22;6879;51.368;6.782;2023-12-07T03:36:38;1.40;99.90
13616;DHT22;6879;51.368;6.782;2023-12-07T03:39:07;1.30;99.90
13616;DHT22;6879;51.368;6.782;2023-12-07T03:41:36;1.40;99.90
13616;DHT22;6879;51.368;6.782;2023-12-07T03:44:05;1.50;99.90
13616;DHT22;6879;51.368;6.782;2023-12-07T03:46:34;1.50;99.90
13616;DHT22;6879;51.368;6.782;2023-12-07T03:49:03;1.60;99.90
13616;DHT22;6879;51.368;6.782;2023-12-07T03:51:31;1.50;99.90
13616;DHT22;6879;51.368;6.782;2023-12-07T03:54:03;1.50;99.90
13616;DHT22;6879;51.368;6.782;2023-12-07T03:56:33;1.50;99.90
13616;DHT22;6879;51.368;6.782;2023-12-07T03:59:02;1.60;99.90
13616;DHT22;6879;51.368;6.782;2023-12-07T04:01:30;1.70;99.90
13616;DHT22;6879;51.368;6.782;2023-12-07T04:03:59;1.80;99.90
13616;DHT22;6879;51.368;6.782;2023-12-07T04:06:28;1.90;99.90
13616;DHT22;6879;51.368;6.782;2023-12-07T04:08:57;1.90;99.90
13616;DHT22;6879;51.368;6.782;2023-12-07T04:11:27;1.80;99.90
13616;DHT22;6879;51.368;6.782;2023-12-07T04:13:55;1.80;99.90
13616;DHT22;6879;51.368;6.782;2023-12-07T04:16:24;1.90;99.90
13616;DHT22;6879;51.368;6.782;2023-12-07T04:18:53;1.80;99.90
13616;DHT22;6879;51.368;6.782;2023-12-07T04:21:22;1.80;99.90
13616;DHT22;6879;51.368;6.782;2023-12-07T04:23:50;1.90;99.90
13616;DHT22;6879;51.368;6.782;2023-12-07T04:26:19;1.80;99.90
13616;DHT22;6879;51.368;6.782;2023-12-07T04:28:49;1.80;99.90
13616;DHT22;6879;51.368;6.782;2023-12-07T04:31:18;1.90;99.90
13616;DHT22;6879;51.368;6.782;2023-12-07T04:33:46;2.00;99.90
13616;DHT22;6879;51.368;6.782;2023-12-07T04:36:15;2.00;99.90
13616;DHT22;6879;51.368;6.782;2023-12-07T04:38:44;2.10;99.90
13616;DHT22;6879;51.368;6.782;2023-12-07T04:41:13;2.00;99.90
13616;DHT22;6879;51.368;6.782;2023-12-07T04:43:42;2.00;99.90
13616;DHT22;6879;51.368;6.782;2023-12-07T04:46:12;2.00;99.90
13616;DHT22;6879;51.368;6.782;2023-12-07T04:48:43;2.00;99.90
13616;DHT22;6879;51.368;6.782;2023-12-07T04:51:12;2.00;99.90
13616;DHT22;6879;51.368;6.782;2023-12-07T04:53:40;2.10;99.90
13616;DHT22;6879;51.368;6.782;2023-12-07T04:56:09;2.10;99.90
13616;DHT22;6879;51.368;6.782;2023-12-07T04:58:38;2.10;99.90
13616;DHT22;6879;51.368;6.782;2023-12-07T05:01:07;2.10;99.90
13616;DHT22;6879;51.368;6.782;2023-12-07T05:03:38;2.10;99.90
13616;DHT22;6879;51.368;6.782;2023-12-07T05:06:06;2.10;99.90
13616;DHT22;6879;51.368;6.782;2023-12-07T05:08:35;2.10;99.90
13616;DHT22;6879;51.368;6.782;2023-12-07T05:11:05;2.10;99.90
13616;DHT22;6879;51.368;6.782;2023-12-07T05:13:33;2.20;99.90
13616;DHT22;6879;51.368;6.782;2023-12-07T05:16:03;2.10;99.90
13616;DHT22;6879;51.368;6.782;2023-12-07T05:18:32;2.20;99.90
13616;DHT22;6879;51.368;6.782;2023-12-07T05:21:02;2.20;99.90
13616;DHT22;6879;51.368;6.782;2023-12-07T05:23:31;2.30;99.90
13616;DHT22;6879;51.368;6.782;2023-12-07T05:26:04;2.30;99.90
13616;DHT22;6879;51.368;6.782;2023-12-07T05:28:36;2.50;99.90
13616;DHT22;6879;51.368;6.782;2023-12-07T05:31:05;2.50;99.90
13616;DHT22;6879;51.368;6.782;2023-12-07T05:33:34;2.50;99.90
13616;DHT22;6879;51.368;6.782;2023-12-07T05:36:05;2.50;99.90
13616;DHT22;6879;51.368;6.782;2023-12-07T05:38:34;2.60;99.90
13616;DHT22;6879;51.368;6.782;2023-12-07T05:41:02;2.70;99.90
13616;DHT22;6879;51.368;6.782;2023-12-07T05:43:31;2.70;99.90
13616;DHT22;6879;51.368;6.782;2023-12-07T05:46:01;2.70;99.90
13616;DHT22;6879;51.368;6.782;2023-12-07T05:48:30;2.70;99.90
13616;DHT22;6879;51.368;6.782;2023-12-07T05:50:58;2.80;99.90
13616;DHT22;6879;51.368;6.782;2023-12-07T05:53:29;2.70;99.90
13616;DHT22;6879;51.368;6.782;2023-12-07T05:55:59;2.70;99.90
13616;DHT22;6879;51.368;6.782;2023-12-07T05:58:31;2.70;99.90
13616;DHT22;6879;51.368;6.782;2023-12-07T06:01:00;2.80;99.90
13616;DHT22;6879;51.368;6.782;2023-12-07T06:03:30;2.80;99.90
13616;DHT22;6879;51.368;6.782;2023-12-07T06:05:59;2.80;99.90
13616;DHT22;6879;51.368;6.782;2023-12-07T06:08:30;2.80;99.90
13616;DHT22;6879;51.368;6.782;2023-12-07T06:10:59;2.80;99.90
13616;DHT22;6879;51.368;6.782;2023-12-07T06:13:27;2.70;99.90
13616;DHT22;6879;51.368;6.782;2023-12-07T06:15:56;2.70;99.90
13616;DHT22;6879;51.368;6.782;2023-12-07T06:18:25;2.60;99.90
13616;DHT22;6879;51.368;6.782;2023-12-07T06:20:54;2.60;99.90
13616;DHT22;6879;51.368;6.782;2023-12-07T06:23:23;2.50;99.90
13616;DHT22;6879;51.368;6.782;2023-12-07T06:25:53;2.50;99.90
13616;DHT22;6879;51.368;6.782;2023-12-07T06:28:22;2.50;99.90
13616;DHT22;6879;51.368;6.782;2023-12-07T06:30:51;2.50;99.90
13616;DHT22;6879;51.368;6.782;2023-12-07T06:33:20;2.50;99.90
13616;DHT22;6879;51.368;6.782;2023-12-07T06:35:49;2.50;99.90
13616;DHT22;6879;51.368;6.782;2023-12-07T06:38:18;2.50;99.90
13616;DHT22;6879;51.368;6.782;2023-12-07T06:40:49;2.50;99.90
13616;DHT22;6879;51.368;6.782;2023-12-07T06:43:19;2.50;99.90
13616;DHT22;6879;51.368;6.782;2023-12-07T06:45:48;2.30;99.90
13616;DHT22;6879;51.368;6.782;2023-12-07T06:48:17;2.10;99.90
13616;DHT22;6879;51.368;6.782;2023-12-07T06:50:45;1.80;99.90
13616;DHT22;6879;51.368;6.782;2023-12-07T06:53:15;1.60;99.90
13616;DHT22;6879;51.368;6.782;2023-12-07T06:55:45;1.70;99.90
13616;DHT22;6879;51.368;6.782;2023-12-07T06:58:14;1.70;99.90
13616;DHT22;6879;51.368;6.782;2023-12-07T07:00:44;1.70;99.90
13616;DHT22;6879;51.368;6.782;2023-12-07T07:03:13;1.60;99.90
13616;DHT22;6879;51.368;6.782;2023-12-07T07:05:41;1.70;99.90
13616;DHT22;6879;51.368;6.782;2023-12-07T07:08:10;1.50;99.90
13616;DHT22;6879;51.368;6.782;2023-12-07T07:10:39;1.30;99.90
13616;DHT22;6879;51.368;6.782;2023-12-07T07:13:08;1.00;99.90
13616;DHT22;6879;51.368;6.782;2023-12-07T07:15:36;0.90;99.90
13616;DHT22;6879;51.368;6.782;2023-12-07T07:18:06;1.00;99.90
13616;DHT22;6879;51.368;6.782;2023-12-07T07:20:35;1.10;99.90
13616;DHT22;6879;51.368;6.782;2023-12-07T07:23:04;1.00;99.90
13616;DHT22;6879;51.368;6.782;2023-12-07T07:25:32;0.90;99.90
13616;DHT22;6879;51.368;6.782;2023-12-07T07:28:01;0.70;99.90
13616;DHT22;6879;51.368;6.782;2023-12-07T07:30:30;0.60;99.90
13616;DHT22;6879;51.368;6.782;2023-12-07T07:32:59;0.40;99.90
13616;DHT22;6879;51.368;6.782;2023-12-07T07:35:30;0.30;99.90
13616;DHT22;6879;51.368;6.782;2023-12-07T07:37:58;0.20;99.90
13616;DHT22;6879;51.368;6.782;2023-12-07T07:40:27;0.10;99.90
13616;DHT22;6879;51.368;6.782;2023-12-07T07:42:56;0.20;99.90
13616;DHT22;6879;51.368;6.782;2023-12-07T07:45:24;0.30;99.90
13616;DHT22;6879;51.368;6.782;2023-12-07T07:47:53;0.30;99.90
13616;DHT22;6879;51.368;6.782;2023-12-07T07:50:22;0.30;99.90
13616;DHT22;6879;51.368;6.782;2023-12-07T07:52:52;0.20;99.90
13616;DHT22;6879;51.368;6.782;2023-12-07T07:55:21;0.30;99.90
13616;DHT22;6879;51.368;6.782;2023-12-07T07:57:50;0.20;99.90
13616;DHT22;6879;51.368;6.782;2023-12-07T08:00:18;0.50;99.90
13616;DHT22;6879;51.368;6.782;2023-12-07T08:02:48;0.70;99.90
13616;DHT22;6879;51.368;6.782;2023-12-07T08:05:17;0.80;99.90
13616;DHT22;6879;51.368;6.782;2023-12-07T08:07:46;0.80;99.90
13616;DHT22;6879;51.368;6.782;2023-12-07T08:10:16;0.70;99.90
13616;DHT22;6879;51.368;6.782;2023-12-07T08:12:45;0.80;99.90
13616;DHT22;6879;51.368;6.782;2023-12-07T08:15:13;0.90;99.90
13616;DHT22;6879;51.368;6.782;2023-12-07T08:17:43;1.20;99.90
13616;DHT22;6879;51.368;6.782;2023-12-07T08:20:11;1.30;99.90
13616;DHT22;6879;51.368;6.782;2023-12-07T08:22:41;1.40;99.90
13616;DHT22;6879;51.368;6.782;2023-12-07T08:25:10;1.40;99.90
13616;DHT22;6879;51.368;6.782;2023-12-07T08:27:41;1.50;99.90
13616;DHT22;6879;51.368;6.782;2023-12-07T08:30:12;1.40;99.90
13616;DHT22;6879;51.368;6.782;2023-12-07T08:32:41;1.40;99.90
13616;DHT22;6879;51.368;6.782;2023-12-07T08:35:09;1.40;99.90
13616;DHT22;6879;51.368;6.782;2023-12-07T08:37:38;1.40;99.90
13616;DHT22;6879;51.368;6.782;2023-12-07T08:40:08;1.40;99.90
13616;DHT22;6879;51.368;6.782;2023-12-07T08:42:40;1.40;99.90
13616;DHT22;6879;51.368;6.782;2023-12-07T08:45:10;1.70;99.90
13616;DHT22;6879;51.368;6.782;2023-12-07T08:47:38;1.80;99.90
13616;DHT22;6879;51.368;6.782;2023-12-07T08:50:09;1.90;99.90
13616;DHT22;6879;51.368;6.782;2023-12-07T08:52:38;2.00;99.90
13616;DHT22;6879;51.368;6.782;2023-12-07T08:55:20;2.00;99.90
13616;DHT22;6879;51.368;6.782;2023-12-07T08:57:53;2.00;99.90
13616;DHT22;6879;51.368;6.782;2023-12-07T09:00:22;2.10;99.90
13616;DHT22;6879;51.368;6.782;2023-12-07T09:02:52;2.10;99.90
13616;DHT22;6879;51.368;6.782;2023-12-07T09:05:21;2.20;99.90
13616;DHT22;6879;51.368;6.782;2023-12-07T09:07:50;2.20;99.90
13616;DHT22;6879;51.368;6.782;2023-12-07T09:10:20;2.30;99.90
13616;DHT22;6879;51.368;6.782;2023-12-07T09:12:50;2.30;99.90
13616;DHT22;6879;51.368;6.782;2023-12-07T09:15:19;2.30;99.90
13616;DHT22;6879;51.368;6.782;2023-12-07T09:17:48;2.40;99.90
13616;DHT22;6879;51.368;6.782;2023-12-07T09:20:17;2.40;99.90
13616;DHT22;6879;51.368;6.782;2023-12-07T09:22:48;2.50;99.90
13616;DHT22;6879;51.368;6.782;2023-12-07T09:25:17;2.50;99.90
13616;DHT22;6879;51.368;6.782;2023-12-07T09:27:47;2.50;99.90
13616;DHT22;6879;51.368;6.782;2023-12-07T09:30:17;2.50;99.90
13616;DHT22;6879;51.368;6.782;2023-12-07T09:32:46;2.50;99.90
13616;DHT22;6879;51.368;6.782;2023-12-07T09:35:16;2.50;99.90
13616;DHT22;6879;51.368;6.782;2023-12-07T09:37:48;2.60;99.90
13616;DHT22;6879;51.368;6.782;2023-12-07T09:43:26;2.60;99.90
13616;DHT22;6879;51.368;6.782;2023-12-07T09:46:02;2.60;99.90
13616;DHT22;6879;51.368;6.782;2023-12-07T09:48:35;2.70;99.90
13616;DHT22;6879;51.368;6.782;2023-12-07T09:51:06;2.70;99.90
13616;DHT22;6879;51.368;6.782;2023-12-07T09:53:35;2.70;99.90
13616;DHT22;6879;51.368;6.782;2023-12-07T09:56:07;2.80;99.90
13616;DHT22;6879;51.368;6.782;2023-12-07T09:58:36;2.90;99.90
13616;DHT22;6879;51.368;6.782;2023-12-07T10:01:09;2.90;99.90
13616;DHT22;6879;51.368;6.782;2023-12-07T10:03:43;3.00;99.90
13616;DHT22;6879;51.368;6.782;2023-12-07T10:06:17;3.00;99.90
13616;DHT22;6879;51.368;6.782;2023-12-07T10:08:47;3.00;99.90
13616;DHT22;6879;51.368;6.782;2023-12-07T10:11:16;3.10;99.90
13616;DHT22;6879;51.368;6.782;2023-12-07T10:14:16;3.10;99.90
13616;DHT22;6879;51.368;6.782;2023-12-07T10:16:54;3.20;99.90
13616;DHT22;6879;51.368;6.782;2023-12-07T10:19:27;3.20;99.90
13616;DHT22;6879;51.368;6.782;2023-12-07T10:21:59;3.20;99.90
13616;DHT22;6879;51.368;6.782;2023-12-07T10:24:39;3.30;99.90
13616;DHT22;6879;51.368;6.782;2023-12-07T10:27:26;3.40;99.90
13616;DHT22;6879;51.368;6.782;2023-12-07T10:30:17;3.40;99.90
13616;DHT22;6879;51.368;6.782;2023-12-07T10:36:08;3.60;99.90
13616;DHT22;6879;51.368;6.782;2023-12-07T10:38:37;3.70;99.90
13616;DHT22;6879;51.368;6.782;2023-12-07T10:41:09;3.70;99.90
13616;DHT22;6879;51.368;6.782;2023-12-07T10:43:43;3.70;99.90
13616;DHT22;6879;51.368;6.782;2023-12-07T10:46:15;3.80;99.90
13616;DHT22;6879;51.368;6.782;2023-12-07T10:48:45;3.80;99.90
13616;DHT22;6879;51.368;6.782;2023-12-07T10:51:20;3.80;99.90
13616;DHT22;6879;51.368;6.782;2023-12-07T10:53:53;3.80;99.90
13616;DHT22;6879;51.368;6.782;2023-12-07T10:56:28;3.80;99.90
13616;DHT22;6879;51.368;6.782;2023-12-07T10:58:58;3.80;99.90
13616;DHT22;6879;51.368;6.782;2023-12-07T11:01:28;3.80;99.90
13616;DHT22;6879;51.368;6.782;2023-12-07T11:03:58;3.90;99.90
13616;DHT22;6879;51.368;6.782;2023-12-07T11:06:29;3.90;99.90
13616;DHT22;6879;51.368;6.782;2023-12-07T11:09:00;4.00;99.90
13616;DHT22;6879;51.368;6.782;2023-12-07T11:11:36;4.10;99.90
13616;DHT22;6879;51.368;6.782;2023-12-07T11:14:08;4.10;99.90
13616;DHT22;6879;51.368;6.782;2023-12-07T11:16:41;4.20;99.90
13616;DHT22;6879;51.368;6.782;2023-12-07T11:19:43;4.40;99.90
13616;DHT22;6879;51.368;6.782;2023-12-07T11:22:14;4.50;99.90
13616;DHT22;6879;51.368;6.782;2023-12-07T11:24:55;4.80;99.90
13616;DHT22;6879;51.368;6.782;2023-12-07T11:27:32;5.10;99.90
13616;DHT22;6879;51.368;6.782;2023-12-07T11:30:02;5.60;99.90
13616;DHT22;6879;51.368;6.782;2023-12-07T11:32:32;6.10;99.90
13616;DHT22;6879;51.368;6.782;2023-12-07T11:35:05;6.60;99.90
13616;DHT22;6879;51.368;6.782;2023-12-07T11:38:01;6.60;99.90
13616;DHT22;6879;51.368;6.782;2023-12-07T11:40:31;7.00;99.90
13616;DHT22;6879;51.368;6.782;2023-12-07T11:43:01;7.30;99.90
13616;DHT22;6879;51.368;6.782;2023-12-07T11:45:40;7.70;99.90
13616;DHT22;6879;51.368;6.782;2023-12-07T11:48:11;7.60;99.90
13616;DHT22;6879;51.368;6.782;2023-12-07T11:50:57;7.90;99.90
13616;DHT22;6879;51.368;6.782;2023-12-07T11:53:30;8.40;99.90
13616;DHT22;6879;51.368;6.782;2023-12-07T11:56:02;8.60;99.90
13616;DHT22;6879;51.368;6.782;2023-12-07T11:58:32;8.90;99.90
13616;DHT22;6879;51.368;6.782;2023-12-07T12:01:06;9.80;99.90
13616;DHT22;6879;51.368;6.782;2023-12-07T12:03:36;9.90;99.90
13616;DHT22;6879;51.368;6.782;2023-12-07T12:06:06;9.50;99.90
13616;DHT22;6879;51.368;6.782;2023-12-07T12:08:42;9.20;99.90
13616;DHT22;6879;51.368;6.782;2023-12-07T12:11:12;8.30;99.90
13616;DHT22;6879;51.368;6.782;2023-12-07T12:13:41;8.30;99.90
13616;DHT22;6879;51.368;6.782;2023-12-07T12:16:11;8.50;99.90
13616;DHT22;6879;51.368;6.782;2023-12-07T12:18:40;8.70;99.90
13616;DHT22;6879;51.368;6.782;2023-12-07T12:21:09;9.20;99.90
13616;DHT22;6879;51.368;6.782;2023-12-07T12:23:39;9.80;99.90
13616;DHT22;6879;51.368;6.782;2023-12-07T12:26:10;10.00;99.90
13616;DHT22;6879;51.368;6.782;2023-12-07T12:28:41;9.80;99.90
13616;DHT22;6879;51.368;6.782;2023-12-07T12:31:11;8.60;99.90
13616;DHT22;6879;51.368;6.782;2023-12-07T12:33:40;8.10;99.90
13616;DHT22;6879;51.368;6.782;2023-12-07T12:36:10;8.10;99.90
13616;DHT22;6879;51.368;6.782;2023-12-07T12:38:39;8.30;99.90
13616;DHT22;6879;51.368;6.782;2023-12-07T12:41:12;8.80;99.90
13616;DHT22;6879;51.368;6.782;2023-12-07T12:43:56;9.40;99.90
13616;DHT22;6879;51.368;6.782;2023-12-07T12:46:27;9.50;99.90
13616;DHT22;6879;51.368;6.782;2023-12-07T12:48:59;9.70;99.90
13616;DHT22;6879;51.368;6.782;2023-12-07T12:51:31;10.00;99.90
13616;DHT22;6879;51.368;6.782;2023-12-07T12:54:01;10.30;99.90
13616;DHT22;6879;51.368;6.782;2023-12-07T12:56:31;9.70;99.90
13616;DHT22;6879;51.368;6.782;2023-12-07T12:59:00;9.70;99.90
13616;DHT22;6879;51.368;6.782;2023-12-07T13:01:32;9.80;99.90
13616;DHT22;6879;51.368;6.782;2023-12-07T13:04:05;9.50;99.90
13616;DHT22;6879;51.368;6.782;2023-12-07T13:06:34;9.40;99.90
13616;DHT22;6879;51.368;6.782;2023-12-07T13:09:06;9.50;99.90
13616;DHT22;6879;51.368;6.782;2023-12-07T13:11:36;9.90;99.90
13616;DHT22;6879;51.368;6.782;2023-12-07T13:14:05;9.80;99.90
13616;DHT22;6879;51.368;6.782;2023-12-07T13:16:35;9.90;99.90
13616;DHT22;6879;51.368;6.782;2023-12-07T13:19:05;10.00;99.90
13616;DHT22;6879;51.368;6.782;2023-12-07T13:21:34;10.20;99.90
13616;DHT22;6879;51.368;6.782;2023-12-07T13:24:04;9.80;99.90
13616;DHT22;6879;51.368;6.782;2023-12-07T13:26:36;9.30;99.90
13616;DHT22;6879;51.368;6.782;2023-12-07T13:29:05;8.70;99.90
13616;DHT22;6879;51.368;6.782;2023-12-07T13:31:43;9.00;99.90
13616;DHT22;6879;51.368;6.782;2023-12-07T13:34:13;9.70;99.90
13616;DHT22;6879;51.368;6.782;2023-12-07T13:36:49;10.30;99.90
13616;DHT22;6879;51.368;6.782;2023-12-07T13:39:18;10.60;97.80
13616;DHT22;6879;51.368;6.782;2023-12-07T13:41:59;11.00;97.20
13616;DHT22;6879;51.368;6.782;2023-12-07T13:44:31;11.10;95.40
13616;DHT22;6879;51.368;6.782;2023-12-07T13:47:01;11.10;95.20
13616;DHT22;6879;51.368;6.782;2023-12-07T13:49:31;11.20;95.10
13616;DHT22;6879;51.368;6.782;2023-12-07T13:52:01;11.30;95.10
13616;DHT22;6879;51.368;6.782;2023-12-07T13:54:35;10.70;95.90
13616;DHT22;6879;51.368;6.782;2023-12-07T13:57:08;10.60;96.10
13616;DHT22;6879;51.368;6.782;2023-12-07T13:59:38;10.70;96.10
13616;DHT22;6879;51.368;6.782;2023-12-07T14:02:07;11.10;94.80
13616;DHT22;6879;51.368;6.782;2023-12-07T14:04:36;10.90;94.80
13616;DHT22;6879;51.368;6.782;2023-12-07T14:07:10;11.00;95.50
13616;DHT22;6879;51.368;6.782;2023-12-07T14:09:40;10.30;95.60
13616;DHT22;6879;51.368;6.782;2023-12-07T14:12:25;9.40;99.90
13616;DHT22;6879;51.368;6.782;2023-12-07T14:14:57;8.80;99.90
13616;DHT22;6879;51.368;6.782;2023-12-07T14:17:26;8.60;99.90
13616;DHT22;6879;51.368;6.782;2023-12-07T14:20:11;8.20;99.90
13616;DHT22;6879;51.368;6.782;2023-12-07T14:23:00;7.70;99.90
13616;DHT22;6879;51.368;6.782;2023-12-07T14:25:32;7.20;99.90
13616;DHT22;6879;51.368;6.782;2023-12-07T14:28:02;6.90;99.90
13616;DHT22;6879;51.368;6.782;2023-12-07T14:30:31;6.60;99.90
13616;DHT22;6879;51.368;6.782;2023-12-07T14:33:01;6.40;99.90
13616;DHT22;6879;51.368;6.782;2023-12-07T14:35:31;6.10;99.90
13616;DHT22;6879;51.368;6.782;2023-12-07T14:38:00;5.90;99.90
13616;DHT22;6879;51.368;6.782;2023-12-07T14:40:29;5.70;99.90
13616;DHT22;6879;51.368;6.782;2023-12-07T14:42:59;5.50;99.90
13616;DHT22;6879;51.368;6.782;2023-12-07T14:45:30;5.40;99.90
13616;DHT22;6879;51.368;6.782;2023-12-07T14:47:58;5.30;99.90
13616;DHT22;6879;51.368;6.782;2023-12-07T14:50:28;5.10;99.90
13616;DHT22;6879;51.368;6.782;2023-12-07T14:52:57;5.00;99.90
13616;DHT22;6879;51.368;6.782;2023-12-07T14:55:27;4.80;99.90
13616;DHT22;6879;51.368;6.782;2023-12-07T14:57:56;4.60;99.90
13616;DHT22;6879;51.368;6.782;2023-12-07T15:00:25;4.50;99.90
13616;DHT22;6879;51.368;6.782;2023-12-07T15:02:57;4.40;99.90
13616;DHT22;6879;51.368;6.782;2023-12-07T15:05:26;4.30;99.90
13616;DHT22;6879;51.368;6.782;2023-12-07T15:07:55;4.20;99.90
13616;DHT22;6879;51.368;6.782;2023-12-07T15:10:24;4.00;99.90
13616;DHT22;6879;51.368;6.782;2023-12-07T15:12:53;3.90;99.90
13616;DHT22;6879;51.368;6.782;2023-12-07T15:15:22;3.80;99.90
13616;DHT22;6879;51.368;6.782;2023-12-07T15:17:54;3.70;99.90
13616;DHT22;6879;51.368;6.782;2023-12-07T15:20:27;3.60;99.90
13616;DHT22;6879;51.368;6.782;2023-12-07T15:22:57;3.40;99.90
13616;DHT22;6879;51.368;6.782;2023-12-07T15:25:26;3.30;99.90
13616;DHT22;6879;51.368;6.782;2023-12-07T15:27:56;3.20;99.90
13616;DHT22;6879;51.368;6.782;2023-12-07T15:30:25;3.00;99.90
13616;DHT22;6879;51.368;6.782;2023-12-07T15:32:56;2.70;99.90
13616;DHT22;6879;51.368;6.782;2023-12-07T15:35:27;2.40;99.90
13616;DHT22;6879;51.368;6.782;2023-12-07T15:37:56;2.40;99.90
13616;DHT22;6879;51.368;6.782;2023-12-07T15:40:26;2.20;99.90
13616;DHT22;6879;51.368;6.782;2023-12-07T15:42:55;2.10;99.90
13616;DHT22;6879;51.368;6.782;2023-12-07T15:45:23;1.90;99.90
13616;DHT22;6879;51.368;6.782;2023-12-07T15:47:52;1.80;99.90
13616;DHT22;6879;51.368;6.782;2023-12-07T15:50:22;1.70;99.90
13616;DHT22;6879;51.368;6.782;2023-12-07T15:52:52;1.90;99.90
13616;DHT22;6879;51.368;6.782;2023-12-07T15:55:21;2.00;99.90
13616;DHT22;6879;51.368;6.782;2023-12-07T15:57:49;1.90;99.90
13616;DHT22;6879;51.368;6.782;2023-12-07T16:00:20;2.10;99.90
13616;DHT22;6879;51.368;6.782;2023-12-07T16:02:48;2.10;99.90
13616;DHT22;6879;51.368;6.782;2023-12-07T16:05:17;2.00;99.90
13616;DHT22;6879;51.368;6.782;2023-12-07T16:07:47;2.00;99.90
13616;DHT22;6879;51.368;6.782;2023-12-07T16:10:18;2.00;99.90
13616;DHT22;6879;51.368;6.782;2023-12-07T16:12:48;2.00;99.90
13616;DHT22;6879;51.368;6.782;2023-12-07T16:15:17;1.90;99.90
13616;DHT22;6879;51.368;6.782;2023-12-07T16:17:48;2.00;99.90
13616;DHT22;6879;51.368;6.782;2023-12-07T16:20:18;2.00;99.90
13616;DHT22;6879;51.368;6.782;2023-12-07T16:22:47;2.10;99.90
13616;DHT22;6879;51.368;6.782;2023-12-07T16:25:18;2.00;99.90
13616;DHT22;6879;51.368;6.782;2023-12-07T16:27:49;1.90;99.90
13616;DHT22;6879;51.368;6.782;2023-12-07T16:30:18;1.80;99.90